sensor_id;sensor_type;location;lat;lon;timestamp;P1;durP1;ratioP1;P2;durP2;ratioP2
30743;SDS011;17486;46.738;7.622;2023-03-20T00:00:05;4.80;;;4.10;;
30743;SDS011;17486;46.738;7.622;2023-03-20T00:02:34;3.65;;;3.30;;
30743;SDS011;17486;46.738;7.622;2023-03-20T00:05:08;3.33;;;3.03;;
30743;SDS011;17486;46.738;7.622;2023-03-20T00:07:40;2.97;;;2.78;;
30743;SDS011;17486;46.738;7.622;2023-03-20T00:10:06;2.80;;;2.60;;
30743;SDS011;17486;46.738;7.622;2023-03-20T00:12:32;2.85;;;2.60;;
30743;SDS011;17486;46.738;7.622;2023-03-20T00:15:06;2.83;;;2.63;;
30743;SDS011;17486;46.738;7.622;2023-03-20T00:17:41;3.20;;;2.78;;
30743;SDS011;17486;46.738;7.622;2023-03-20T00:20:12;2.97;;;2.67;;
30743;SDS011;17486;46.738;7.622;2023-03-20T00:22:41;2.70;;;2.50;;
30743;SDS011;17486;46.738;7.622;2023-03-20T00:25:11;3.42;;;2.75;;
30743;SDS011;17486;46.738;7.622;2023-03-20T00:27:39;3.42;;;3.10;;
30743;SDS011;17486;46.738;7.622;2023-03-20T00:30:13;3.75;;;3.45;;
30743;SDS011;17486;46.738;7.622;2023-03-20T00:32:45;4.97;;;3.67;;
30743;SDS011;17486;46.738;7.622;2023-03-20T00:35:19;4.00;;;3.67;;
30743;SDS011;17486;46.738;7.622;2023-03-20T00:37:53;4.78;;;4.38;;
30743;SDS011;17486;46.738;7.622;2023-03-20T00:40:20;6.10;;;5.18;;
30743;SDS011;17486;46.738;7.622;2023-03-20T00:42:46;5.70;;;5.20;;
30743;SDS011;17486;46.738;7.622;2023-03-20T00:45:19;6.28;;;5.68;;
30743;SDS011;17486;46.738;7.622;2023-03-20T00:47:48;6.18;;;5.57;;
30743;SDS011;17486;46.738;7.622;2023-03-20T00:50:25;7.50;;;5.43;;
30743;SDS011;17486;46.738;7.622;2023-03-20T00:52:54;5.93;;;5.35;;
30743;SDS011;17486;46.738;7.622;2023-03-20T00:55:21;6.60;;;5.30;;
30743;SDS011;17486;46.738;7.622;2023-03-20T00:57:48;5.90;;;5.30;;
30743;SDS011;17486;46.738;7.622;2023-03-20T01:03:02;5.72;;;5.22;;
30743;SDS011;17486;46.738;7.622;2023-03-20T01:05:34;5.78;;;5.18;;
30743;SDS011;17486;46.738;7.622;2023-03-20T01:08:00;7.03;;;5.70;;
30743;SDS011;17486;46.738;7.622;2023-03-20T01:10:27;5.95;;;5.45;;
30743;SDS011;17486;46.738;7.622;2023-03-20T01:12:56;5.82;;;5.20;;
30743;SDS011;17486;46.738;7.622;2023-03-20T01:15:25;5.90;;;5.30;;
30743;SDS011;17486;46.738;7.622;2023-03-20T01:17:55;5.70;;;5.20;;
30743;SDS011;17486;46.738;7.622;2023-03-20T01:20:22;5.00;;;4.60;;
30743;SDS011;17486;46.738;7.622;2023-03-20T01:22:49;5.35;;;4.68;;
30743;SDS011;17486;46.738;7.622;2023-03-20T01:25:15;4.10;;;3.80;;
30743;SDS011;17486;46.738;7.622;2023-03-20T01:27:45;3.65;;;3.35;;
30743;SDS011;17486;46.738;7.622;2023-03-20T01:30:15;3.30;;;3.00;;
30743;SDS011;17486;46.738;7.622;2023-03-20T01:32:45;4.07;;;3.40;;
30743;SDS011;17486;46.738;7.622;2023-03-20T01:35:12;3.53;;;3.22;;
30743;SDS011;17486;46.738;7.622;2023-03-20T01:37:39;3.80;;;3.50;;
30743;SDS011;17486;46.738;7.622;2023-03-20T01:40:12;4.03;;;3.55;;
30743;SDS011;17486;46.738;7.622;2023-03-20T01:43:00;3.72;;;3.42;;
30743;SDS011;17486;46.738;7.622;2023-03-20T01:45:29;3.92;;;3.63;;
30743;SDS011;17486;46.738;7.622;2023-03-20T01:48:00;4.32;;;3.92;;
30743;SDS011;17486;46.738;7.622;2023-03-20T01:50:36;4.18;;;3.88;;
30743;SDS011;17486;46.738;7.622;2023-03-20T01:53:03;4.53;;;4.13;;
30743;SDS011;17486;46.738;7.622;2023-03-20T01:55:36;4.15;;;3.85;;
30743;SDS011;17486;46.738;7.622;2023-03-20T01:58:06;4.82;;;4.28;;
30743;SDS011;17486;46.738;7.622;2023-03-20T02:00:33;6.28;;;4.18;;
30743;SDS011;17486;46.738;7.622;2023-03-20T02:03:00;5.00;;;4.57;;
30743;SDS011;17486;46.738;7.622;2023-03-20T02:05:26;5.00;;;4.53;;
30743;SDS011;17486;46.738;7.622;2023-03-20T02:07:58;5.13;;;4.65;;
30743;SDS011;17486;46.738;7.622;2023-03-20T02:10:35;5.85;;;5.03;;
30743;SDS011;17486;46.738;7.622;2023-03-20T02:13:01;5.10;;;4.70;;
30743;SDS011;17486;46.738;7.622;2023-03-20T02:15:29;4.35;;;4.05;;
30743;SDS011;17486;46.738;7.622;2023-03-20T02:17:55;4.13;;;3.83;;
30743;SDS011;17486;46.738;7.622;2023-03-20T02:20:30;4.13;;;3.50;;
30743;SDS011;17486;46.738;7.622;2023-03-20T02:26:11;4.50;;;4.10;;
30743;SDS011;17486;46.738;7.622;2023-03-20T02:42:38;5.45;;;4.28;;
30743;SDS011;17486;46.738;7.622;2023-03-20T02:45:11;4.32;;;3.92;;
30743;SDS011;17486;46.738;7.622;2023-03-20T02:53:14;3.38;;;3.05;;
30743;SDS011;17486;46.738;7.622;2023-03-20T02:55:42;3.33;;;2.47;;
30743;SDS011;17486;46.738;7.622;2023-03-20T02:58:21;2.63;;;2.42;;
30743;SDS011;17486;46.738;7.622;2023-03-20T03:01:13;2.70;;;2.50;;
30743;SDS011;17486;46.738;7.622;2023-03-20T03:04:26;2.72;;;2.53;;
30743;SDS011;17486;46.738;7.622;2023-03-20T03:06:36;2.70;;;2.50;;
30743;SDS011;17486;46.738;7.622;2023-03-20T03:09:08;2.70;;;2.50;;
30743;SDS011;17486;46.738;7.622;2023-03-20T03:11:37;3.10;;;2.80;;
30743;SDS011;17486;46.738;7.622;2023-03-20T03:14:08;2.80;;;2.60;;
30743;SDS011;17486;46.738;7.622;2023-03-20T03:16:53;3.20;;;2.90;;
30743;SDS011;17486;46.738;7.622;2023-03-20T03:19:21;2.97;;;2.78;;
30743;SDS011;17486;46.738;7.622;2023-03-20T03:21:50;2.88;;;2.63;;
30743;SDS011;17486;46.738;7.622;2023-03-20T03:24:38;3.28;;;2.97;;
30743;SDS011;17486;46.738;7.622;2023-03-20T03:27:04;3.13;;;2.72;;
30743;SDS011;17486;46.738;7.622;2023-03-20T03:29:37;3.40;;;3.10;;
30743;SDS011;17486;46.738;7.622;2023-03-20T03:32:05;3.35;;;2.75;;
30743;SDS011;17486;46.738;7.622;2023-03-20T03:34:32;2.55;;;2.35;;
30743;SDS011;17486;46.738;7.622;2023-03-20T03:42:27;3.10;;;2.80;;
30743;SDS011;17486;46.738;7.622;2023-03-20T03:45:14;3.60;;;2.60;;
30743;SDS011;17486;46.738;7.622;2023-03-20T03:50:22;2.92;;;2.63;;
30743;SDS011;17486;46.738;7.622;2023-03-20T03:52:54;3.30;;;3.00;;
30743;SDS011;17486;46.738;7.622;2023-03-20T03:55:25;3.33;;;2.50;;
30743;SDS011;17486;46.738;7.622;2023-03-20T03:58:04;3.08;;;2.78;;
30743;SDS011;17486;46.738;7.622;2023-03-20T04:00:35;2.90;;;2.70;;
30743;SDS011;17486;46.738;7.622;2023-03-20T04:03:05;2.97;;;2.60;;
30743;SDS011;17486;46.738;7.622;2023-03-20T04:05:32;2.75;;;2.55;;
30743;SDS011;17486;46.738;7.622;2023-03-20T04:08:02;3.65;;;2.70;;
30743;SDS011;17486;46.738;7.622;2023-03-20T04:10:28;2.90;;;2.47;;
30743;SDS011;17486;46.738;7.622;2023-03-20T04:12:54;4.20;;;3.33;;
30743;SDS011;17486;46.738;7.622;2023-03-20T04:15:19;3.53;;;3.15;;
30743;SDS011;17486;46.738;7.622;2023-03-20T04:17:45;3.67;;;2.92;;
30743;SDS011;17486;46.738;7.622;2023-03-20T04:20:11;3.30;;;3.00;;
30743;SDS011;17486;46.738;7.622;2023-03-20T04:22:37;3.42;;;3.13;;
30743;SDS011;17486;46.738;7.622;2023-03-20T04:25:03;6.18;;;3.22;;
30743;SDS011;17486;46.738;7.622;2023-03-20T04:27:30;5.13;;;3.40;;
30743;SDS011;17486;46.738;7.622;2023-03-20T04:29:55;4.13;;;3.42;;
30743;SDS011;17486;46.738;7.622;2023-03-20T04:32:21;3.42;;;3.13;;
30743;SDS011;17486;46.738;7.622;2023-03-20T04:34:46;2.95;;;2.75;;
30743;SDS011;17486;46.738;7.622;2023-03-20T04:37:12;3.08;;;2.72;;
30743;SDS011;17486;46.738;7.622;2023-03-20T04:39:37;3.35;;;3.05;;
30743;SDS011;17486;46.738;7.622;2023-03-20T04:42:03;5.25;;;2.55;;
30743;SDS011;17486;46.738;7.622;2023-03-20T04:44:30;3.00;;;2.55;;
30743;SDS011;17486;46.738;7.622;2023-03-20T04:46:56;3.17;;;2.40;;
30743;SDS011;17486;46.738;7.622;2023-03-20T04:49:22;3.13;;;2.83;;
30743;SDS011;17486;46.738;7.622;2023-03-20T04:51:47;2.90;;;2.70;;
30743;SDS011;17486;46.738;7.622;2023-03-20T04:54:12;4.72;;;2.65;;
30743;SDS011;17486;46.738;7.622;2023-03-20T04:56:38;3.35;;;3.05;;
30743;SDS011;17486;46.738;7.622;2023-03-20T04:59:03;2.95;;;2.65;;
30743;SDS011;17486;46.738;7.622;2023-03-20T05:01:29;4.65;;;4.25;;
30743;SDS011;17486;46.738;7.622;2023-03-20T05:03:54;5.32;;;4.82;;
30743;SDS011;17486;46.738;7.622;2023-03-20T05:06:27;5.97;;;5.30;;
30743;SDS011;17486;46.738;7.622;2023-03-20T05:08:54;5.72;;;5.22;;
30743;SDS011;17486;46.738;7.622;2023-03-20T05:11:19;6.18;;;5.68;;
30743;SDS011;17486;46.738;7.622;2023-03-20T05:13:45;6.05;;;5.53;;
30743;SDS011;17486;46.738;7.622;2023-03-20T05:16:11;5.32;;;4.90;;
30743;SDS011;17486;46.738;7.622;2023-03-20T05:18:36;5.70;;;5.20;;
30743;SDS011;17486;46.738;7.622;2023-03-20T05:21:01;5.88;;;5.38;;
30743;SDS011;17486;46.738;7.622;2023-03-20T05:23:28;5.35;;;4.82;;
30743;SDS011;17486;46.738;7.622;2023-03-20T05:25:54;6.15;;;5.55;;
30743;SDS011;17486;46.738;7.622;2023-03-20T05:28:20;5.88;;;4.97;;
30743;SDS011;17486;46.738;7.622;2023-03-20T05:30:45;5.53;;;5.03;;
30743;SDS011;17486;46.738;7.622;2023-03-20T05:33:11;6.18;;;5.65;;
30743;SDS011;17486;46.738;7.622;2023-03-20T05:35:36;6.57;;;5.97;;
30743;SDS011;17486;46.738;7.622;2023-03-20T05:38:01;6.20;;;5.68;;
30743;SDS011;17486;46.738;7.622;2023-03-20T05:40:27;6.13;;;5.63;;
30743;SDS011;17486;46.738;7.622;2023-03-20T05:42:52;6.32;;;5.78;;
30743;SDS011;17486;46.738;7.622;2023-03-20T05:45:18;6.13;;;5.57;;
30743;SDS011;17486;46.738;7.622;2023-03-20T05:47:43;6.20;;;5.57;;
30743;SDS011;17486;46.738;7.622;2023-03-20T05:50:09;5.55;;;5.05;;
30743;SDS011;17486;46.738;7.622;2023-03-20T05:52:35;6.15;;;5.55;;
30743;SDS011;17486;46.738;7.622;2023-03-20T05:55:01;6.38;;;5.72;;
30743;SDS011;17486;46.738;7.622;2023-03-20T05:57:26;6.57;;;5.80;;
30743;SDS011;17486;46.738;7.622;2023-03-20T05:59:52;5.60;;;5.20;;
30743;SDS011;17486;46.738;7.622;2023-03-20T06:02:17;5.85;;;5.35;;
30743;SDS011;17486;46.738;7.622;2023-03-20T06:04:43;5.85;;;5.35;;
30743;SDS011;17486;46.738;7.622;2023-03-20T06:07:08;6.38;;;5.78;;
30743;SDS011;17486;46.738;7.622;2023-03-20T06:09:33;5.63;;;5.13;;
30743;SDS011;17486;46.738;7.622;2023-03-20T06:11:59;5.68;;;4.97;;
30743;SDS011;17486;46.738;7.622;2023-03-20T06:14:24;5.28;;;4.78;;
30743;SDS011;17486;46.738;7.622;2023-03-20T06:16:50;6.38;;;5.00;;
30743;SDS011;17486;46.738;7.622;2023-03-20T06:19:18;5.05;;;4.55;;
30743;SDS011;17486;46.738;7.622;2023-03-20T06:21:43;7.38;;;6.68;;
30743;SDS011;17486;46.738;7.622;2023-03-20T06:24:09;7.65;;;6.90;;
30743;SDS011;17486;46.738;7.622;2023-03-20T06:26:34;5.85;;;5.28;;
30743;SDS011;17486;46.738;7.622;2023-03-20T06:29:00;4.70;;;4.30;;
30743;SDS011;17486;46.738;7.622;2023-03-20T06:31:25;4.80;;;4.40;;
30743;SDS011;17486;46.738;7.622;2023-03-20T06:33:51;5.47;;;4.55;;
30743;SDS011;17486;46.738;7.622;2023-03-20T06:36:16;4.18;;;3.78;;
30743;SDS011;17486;46.738;7.622;2023-03-20T06:38:42;109.00;;;73.35;;
30743;SDS011;17486;46.738;7.622;2023-03-20T06:41:07;135.52;;;89.05;;
30743;SDS011;17486;46.738;7.622;2023-03-20T06:43:33;95.82;;;66.25;;
30743;SDS011;17486;46.738;7.622;2023-03-20T06:45:58;32.45;;;24.42;;
30743;SDS011;17486;46.738;7.622;2023-03-20T06:48:24;9.30;;;7.72;;
30743;SDS011;17486;46.738;7.622;2023-03-20T06:50:50;5.18;;;4.55;;
30743;SDS011;17486;46.738;7.622;2023-03-20T06:53:16;3.38;;;2.95;;
30743;SDS011;17486;46.738;7.622;2023-03-20T06:55:46;3.10;;;2.70;;
30743;SDS011;17486;46.738;7.622;2023-03-20T06:58:12;3.00;;;2.67;;
30743;SDS011;17486;46.738;7.622;2023-03-20T07:00:38;3.47;;;2.63;;
30743;SDS011;17486;46.738;7.622;2023-03-20T07:03:03;3.10;;;2.80;;
30743;SDS011;17486;46.738;7.622;2023-03-20T07:05:29;3.15;;;2.85;;
30743;SDS011;17486;46.738;7.622;2023-03-20T07:07:54;3.42;;;3.13;;
30743;SDS011;17486;46.738;7.622;2023-03-20T07:10:20;4.05;;;3.65;;
30743;SDS011;17486;46.738;7.622;2023-03-20T07:12:45;5.78;;;4.80;;
30743;SDS011;17486;46.738;7.622;2023-03-20T07:15:11;5.40;;;4.90;;
30743;SDS011;17486;46.738;7.622;2023-03-20T07:17:36;86.45;;;60.28;;
30743;SDS011;17486;46.738;7.622;2023-03-20T07:20:02;122.85;;;81.30;;
30743;SDS011;17486;46.738;7.622;2023-03-20T07:22:29;56.00;;;38.13;;
30743;SDS011;17486;46.738;7.622;2023-03-20T07:24:55;20.98;;;16.40;;
30743;SDS011;17486;46.738;7.622;2023-03-20T07:27:21;10.07;;;8.85;;
30743;SDS011;17486;46.738;7.622;2023-03-20T07:29:47;6.50;;;5.90;;
30743;SDS011;17486;46.738;7.622;2023-03-20T07:32:12;5.63;;;5.13;;
30743;SDS011;17486;46.738;7.622;2023-03-20T07:34:38;4.70;;;4.20;;
30743;SDS011;17486;46.738;7.622;2023-03-20T07:37:03;5.07;;;4.65;;
30743;SDS011;17486;46.738;7.622;2023-03-20T07:39:29;5.85;;;5.28;;
30743;SDS011;17486;46.738;7.622;2023-03-20T07:41:54;5.65;;;5.15;;
30743;SDS011;17486;46.738;7.622;2023-03-20T07:44:20;5.55;;;5.10;;
30743;SDS011;17486;46.738;7.622;2023-03-20T07:46:45;6.13;;;5.53;;
30743;SDS011;17486;46.738;7.622;2023-03-20T07:49:15;5.18;;;4.78;;
30743;SDS011;17486;46.738;7.622;2023-03-20T07:51:44;5.65;;;5.22;;
30743;SDS011;17486;46.738;7.622;2023-03-20T07:54:11;4.60;;;4.22;;
30743;SDS011;17486;46.738;7.622;2023-03-20T07:56:36;4.25;;;3.95;;
30743;SDS011;17486;46.738;7.622;2023-03-20T07:59:02;97.75;;;70.55;;
30743;SDS011;17486;46.738;7.622;2023-03-20T08:01:27;285.85;;;211.80;;
30743;SDS011;17486;46.738;7.622;2023-03-20T08:03:53;218.45;;;161.15;;
30743;SDS011;17486;46.738;7.622;2023-03-20T08:06:18;70.03;;;53.88;;
30743;SDS011;17486;46.738;7.622;2023-03-20T08:08:44;21.30;;;16.17;;
30743;SDS011;17486;46.738;7.622;2023-03-20T08:11:10;8.68;;;6.30;;
30743;SDS011;17486;46.738;7.622;2023-03-20T08:13:36;4.50;;;4.10;;
30743;SDS011;17486;46.738;7.622;2023-03-20T08:16:03;4.13;;;3.72;;
30743;SDS011;17486;46.738;7.622;2023-03-20T08:18:29;3.45;;;3.15;;
30743;SDS011;17486;46.738;7.622;2023-03-20T08:20:54;3.60;;;3.30;;
30743;SDS011;17486;46.738;7.622;2023-03-20T08:23:20;3.45;;;3.15;;
30743;SDS011;17486;46.738;7.622;2023-03-20T08:25:46;3.38;;;3.17;;
30743;SDS011;17486;46.738;7.622;2023-03-20T08:28:13;4.07;;;3.75;;
30743;SDS011;17486;46.738;7.622;2023-03-20T08:30:38;3.60;;;3.30;;
30743;SDS011;17486;46.738;7.622;2023-03-20T08:33:03;3.22;;;2.92;;
30743;SDS011;17486;46.738;7.622;2023-03-20T08:35:29;3.40;;;3.10;;
30743;SDS011;17486;46.738;7.622;2023-03-20T08:37:54;3.67;;;3.40;;
30743;SDS011;17486;46.738;7.622;2023-03-20T08:40:20;3.50;;;3.30;;
30743;SDS011;17486;46.738;7.622;2023-03-20T08:42:45;3.60;;;3.30;;
30743;SDS011;17486;46.738;7.622;2023-03-20T08:45:10;2.63;;;2.40;;
30743;SDS011;17486;46.738;7.622;2023-03-20T08:47:36;2.80;;;2.60;;
30743;SDS011;17486;46.738;7.622;2023-03-20T08:50:02;2.70;;;2.50;;
30743;SDS011;17486;46.738;7.622;2023-03-20T08:52:28;3.47;;;2.90;;
30743;SDS011;17486;46.738;7.622;2023-03-20T08:54:53;10.77;;;9.43;;
30743;SDS011;17486;46.738;7.622;2023-03-20T08:57:19;517.58;;;400.67;;
30743;SDS011;17486;46.738;7.622;2023-03-20T08:59:44;447.30;;;339.45;;
30743;SDS011;17486;46.738;7.622;2023-03-20T09:02:10;104.38;;;69.40;;
30743;SDS011;17486;46.738;7.622;2023-03-20T09:04:36;12.07;;;8.90;;
30743;SDS011;17486;46.738;7.622;2023-03-20T09:07:02;6.55;;;5.00;;
30743;SDS011;17486;46.738;7.622;2023-03-20T09:09:28;3.63;;;3.33;;
30743;SDS011;17486;46.738;7.622;2023-03-20T09:11:56;3.20;;;2.78;;
30743;SDS011;17486;46.738;7.622;2023-03-20T09:14:23;2.60;;;2.40;;
30743;SDS011;17486;46.738;7.622;2023-03-20T09:16:49;2.60;;;2.40;;
30743;SDS011;17486;46.738;7.622;2023-03-20T09:19:15;106.95;;;76.22;;
30743;SDS011;17486;46.738;7.622;2023-03-20T09:21:41;213.75;;;164.93;;
30743;SDS011;17486;46.738;7.622;2023-03-20T09:24:07;313.85;;;238.50;;
30743;SDS011;17486;46.738;7.622;2023-03-20T09:26:33;231.70;;;164.00;;
30743;SDS011;17486;46.738;7.622;2023-03-20T09:28:58;52.30;;;38.70;;
30743;SDS011;17486;46.738;7.622;2023-03-20T09:31:23;12.82;;;9.18;;
30743;SDS011;17486;46.738;7.622;2023-03-20T09:33:49;4.13;;;3.67;;
30743;SDS011;17486;46.738;7.622;2023-03-20T09:36:14;3.05;;;2.30;;
30743;SDS011;17486;46.738;7.622;2023-03-20T09:38:40;2.33;;;2.13;;
30743;SDS011;17486;46.738;7.622;2023-03-20T09:41:06;2.53;;;1.90;;
30743;SDS011;17486;46.738;7.622;2023-03-20T09:52:15;46.47;;;39.97;;
30743;SDS011;17486;46.738;7.622;2023-03-20T09:54:48;151.18;;;115.78;;
30743;SDS011;17486;46.738;7.622;2023-03-20T09:57:25;178.55;;;127.78;;
30743;SDS011;17486;46.738;7.622;2023-03-20T10:00:03;124.32;;;86.93;;
30743;SDS011;17486;46.738;7.622;2023-03-20T10:05:03;7.55;;;6.30;;
30743;SDS011;17486;46.738;7.622;2023-03-20T10:07:41;3.05;;;2.30;;
30743;SDS011;17486;46.738;7.622;2023-03-20T10:10:08;212.15;;;153.77;;
30743;SDS011;17486;46.738;7.622;2023-03-20T10:12:54;272.13;;;216.43;;
30743;SDS011;17486;46.738;7.622;2023-03-20T10:15:38;57.47;;;44.60;;
30743;SDS011;17486;46.738;7.622;2023-03-20T10:18:16;11.50;;;9.05;;
30743;SDS011;17486;46.738;7.622;2023-03-20T10:21:25;4.28;;;3.88;;
30743;SDS011;17486;46.738;7.622;2023-03-20T10:26:43;2.40;;;2.20;;
30743;SDS011;17486;46.738;7.622;2023-03-20T10:29:17;3.17;;;1.80;;
30743;SDS011;17486;46.738;7.622;2023-03-20T10:31:51;53.78;;;43.58;;
30743;SDS011;17486;46.738;7.622;2023-03-20T10:37:38;275.45;;;217.00;;
30743;SDS011;17486;46.738;7.622;2023-03-20T10:40:33;47.22;;;37.70;;
30743;SDS011;17486;46.738;7.622;2023-03-20T10:43:02;7.82;;;6.72;;
30743;SDS011;17486;46.738;7.622;2023-03-20T10:45:38;2.83;;;2.60;;
30743;SDS011;17486;46.738;7.622;2023-03-20T10:48:29;2.22;;;1.70;;
30743;SDS011;17486;46.738;7.622;2023-03-20T10:50:58;1.52;;;1.42;;
30743;SDS011;17486;46.738;7.622;2023-03-20T10:53:30;1.25;;;1.15;;
30743;SDS011;17486;46.738;7.622;2023-03-20T10:56:05;1.38;;;1.27;;
30743;SDS011;17486;46.738;7.622;2023-03-20T10:58:38;2.08;;;1.30;;
30743;SDS011;17486;46.738;7.622;2023-03-20T11:01:05;2.30;;;1.50;;
30743;SDS011;17486;46.738;7.622;2023-03-20T11:03:31;0.93;;;0.93;;
30743;SDS011;17486;46.738;7.622;2023-03-20T11:06:00;1.02;;;0.90;;
30743;SDS011;17486;46.738;7.622;2023-03-20T11:08:36;0.85;;;0.85;;
30743;SDS011;17486;46.738;7.622;2023-03-20T11:11:04;1.00;;;1.00;;
30743;SDS011;17486;46.738;7.622;2023-03-20T11:13:34;1.35;;;1.25;;
30743;SDS011;17486;46.738;7.622;2023-03-20T11:21:00;1.25;;;1.15;;
30743;SDS011;17486;46.738;7.622;2023-03-20T11:23:27;1.42;;;1.13;;
30743;SDS011;17486;46.738;7.622;2023-03-20T11:25:57;0.82;;;0.70;;
30743;SDS011;17486;46.738;7.622;2023-03-20T11:28:40;0.60;;;0.60;;
30743;SDS011;17486;46.738;7.622;2023-03-20T11:33:38;2.05;;;0.80;;
30743;SDS011;17486;46.738;7.622;2023-03-20T11:36:11;1.08;;;0.80;;
30743;SDS011;17486;46.738;7.622;2023-03-20T11:38:45;0.73;;;0.60;;
30743;SDS011;17486;46.738;7.622;2023-03-20T11:41:25;0.68;;;0.68;;
30743;SDS011;17486;46.738;7.622;2023-03-20T11:43:51;0.55;;;0.55;;
30743;SDS011;17486;46.738;7.622;2023-03-20T11:46:18;0.70;;;0.70;;
30743;SDS011;17486;46.738;7.622;2023-03-20T11:51:48;0.70;;;0.70;;
30743;SDS011;17486;46.738;7.622;2023-03-20T11:54:15;1.08;;;0.98;;
30743;SDS011;17486;46.738;7.622;2023-03-20T11:56:50;0.57;;;0.57;;
30743;SDS011;17486;46.738;7.622;2023-03-20T11:59:20;0.60;;;0.60;;
30743;SDS011;17486;46.738;7.622;2023-03-20T12:01:48;1.02;;;1.00;;
30743;SDS011;17486;46.738;7.622;2023-03-20T12:04:19;2.20;;;1.13;;
30743;SDS011;17486;46.738;7.622;2023-03-20T12:06:52;0.65;;;0.60;;
30743;SDS011;17486;46.738;7.622;2023-03-20T12:09:30;0.70;;;0.50;;
30743;SDS011;17486;46.738;7.622;2023-03-20T12:12:01;0.50;;;0.50;;
30743;SDS011;17486;46.738;7.622;2023-03-20T12:14:44;2.92;;;0.90;;
30743;SDS011;17486;46.738;7.622;2023-03-20T12:28:23;65.43;;;51.42;;
30743;SDS011;17486;46.738;7.622;2023-03-20T12:36:36;3.00;;;1.95;;
30743;SDS011;17486;46.738;7.622;2023-03-20T12:39:11;3.78;;;1.45;;
30743;SDS011;17486;46.738;7.622;2023-03-20T12:41:40;0.75;;;0.73;;
30743;SDS011;17486;46.738;7.622;2023-03-20T13:00:50;0.75;;;0.50;;
30743;SDS011;17486;46.738;7.622;2023-03-20T13:17:35;0.60;;;0.52;;
30743;SDS011;17486;46.738;7.622;2023-03-20T13:25:41;0.85;;;0.40;;
30743;SDS011;17486;46.738;7.622;2023-03-20T13:31:24;0.90;;;0.70;;
30743;SDS011;17486;46.738;7.622;2023-03-20T13:40:23;1.90;;;0.60;;
30743;SDS011;17486;46.738;7.622;2023-03-20T13:42:38;0.40;;;0.40;;
30743;SDS011;17486;46.738;7.622;2023-03-20T13:45:08;1.70;;;0.50;;
30743;SDS011;17486;46.738;7.622;2023-03-20T13:47:46;0.43;;;0.43;;
30743;SDS011;17486;46.738;7.622;2023-03-20T13:52:56;1.48;;;0.73;;
30743;SDS011;17486;46.738;7.622;2023-03-20T13:55:34;0.68;;;0.68;;
30743;SDS011;17486;46.738;7.622;2023-03-20T14:04:20;2.33;;;0.52;;
30743;SDS011;17486;46.738;7.622;2023-03-20T14:12:04;0.95;;;0.43;;
30743;SDS011;17486;46.738;7.622;2023-03-20T14:17:06;1.00;;;0.60;;
30743;SDS011;17486;46.738;7.622;2023-03-20T14:19:38;0.82;;;0.50;;
30743;SDS011;17486;46.738;7.622;2023-03-20T14:22:04;0.85;;;0.70;;
30743;SDS011;17486;46.738;7.622;2023-03-20T14:24:31;1.00;;;0.70;;
30743;SDS011;17486;46.738;7.622;2023-03-20T14:27:00;1.13;;;0.75;;
30743;SDS011;17486;46.738;7.622;2023-03-20T14:32:45;2.80;;;2.33;;
30743;SDS011;17486;46.738;7.622;2023-03-20T14:35:00;3.00;;;1.63;;
30743;SDS011;17486;46.738;7.622;2023-03-20T14:52:21;0.68;;;0.68;;
30743;SDS011;17486;46.738;7.622;2023-03-20T14:54:54;1.02;;;0.90;;
30743;SDS011;17486;46.738;7.622;2023-03-20T14:57:29;0.95;;;0.70;;
30743;SDS011;17486;46.738;7.622;2023-03-20T14:59:57;0.73;;;0.73;;
30743;SDS011;17486;46.738;7.622;2023-03-20T15:02:26;0.47;;;0.47;;
30743;SDS011;17486;46.738;7.622;2023-03-20T15:04:54;0.68;;;0.68;;
30743;SDS011;17486;46.738;7.622;2023-03-20T15:07:22;0.70;;;0.68;;
30743;SDS011;17486;46.738;7.622;2023-03-20T15:09:52;0.60;;;0.60;;
30743;SDS011;17486;46.738;7.622;2023-03-20T15:12:22;0.60;;;0.60;;
30743;SDS011;17486;46.738;7.622;2023-03-20T15:14:50;0.93;;;0.80;;
30743;SDS011;17486;46.738;7.622;2023-03-20T15:17:24;0.85;;;0.85;;
30743;SDS011;17486;46.738;7.622;2023-03-20T15:19:57;0.88;;;0.60;;
30743;SDS011;17486;46.738;7.622;2023-03-20T15:23:01;1.42;;;0.80;;
30743;SDS011;17486;46.738;7.622;2023-03-20T15:28:00;0.60;;;0.60;;
30743;SDS011;17486;46.738;7.622;2023-03-20T15:30:29;1.80;;;0.63;;
30743;SDS011;17486;46.738;7.622;2023-03-20T15:32:57;0.95;;;0.63;;
30743;SDS011;17486;46.738;7.622;2023-03-20T15:35:25;1.00;;;0.63;;
30743;SDS011;17486;46.738;7.622;2023-03-20T15:37:51;0.70;;;0.70;;
30743;SDS011;17486;46.738;7.622;2023-03-20T15:40:25;0.90;;;0.60;;
30743;SDS011;17486;46.738;7.622;2023-03-20T15:42:58;0.60;;;0.60;;
30743;SDS011;17486;46.738;7.622;2023-03-20T15:45:32;0.57;;;0.57;;
30743;SDS011;17486;46.738;7.622;2023-03-20T15:48:06;0.77;;;0.77;;
30743;SDS011;17486;46.738;7.622;2023-03-20T15:50:33;0.55;;;0.50;;
30743;SDS011;17486;46.738;7.622;2023-03-20T15:53:01;0.50;;;0.50;;
30743;SDS011;17486;46.738;7.622;2023-03-20T15:55:28;1.15;;;0.95;;
30743;SDS011;17486;46.738;7.622;2023-03-20T15:57:55;0.73;;;0.70;;
30743;SDS011;17486;46.738;7.622;2023-03-20T16:02:59;0.77;;;0.77;;
30743;SDS011;17486;46.738;7.622;2023-03-20T16:05:26;0.70;;;0.70;;
30743;SDS011;17486;46.738;7.622;2023-03-20T16:07:54;1.50;;;0.60;;
30743;SDS011;17486;46.738;7.622;2023-03-20T16:12:52;0.90;;;0.70;;
30743;SDS011;17486;46.738;7.622;2023-03-20T16:15:21;0.80;;;0.80;;
30743;SDS011;17486;46.738;7.622;2023-03-20T16:17:51;0.77;;;0.77;;
30743;SDS011;17486;46.738;7.622;2023-03-20T16:20:19;0.80;;;0.80;;
30743;SDS011;17486;46.738;7.622;2023-03-20T16:22:46;0.98;;;0.70;;
30743;SDS011;17486;46.738;7.622;2023-03-20T16:25:14;0.80;;;0.80;;
30743;SDS011;17486;46.738;7.622;2023-03-20T16:27:43;2.55;;;0.90;;
30743;SDS011;17486;46.738;7.622;2023-03-20T16:30:15;1.17;;;0.90;;
30743;SDS011;17486;46.738;7.622;2023-03-20T16:32:44;1.50;;;1.40;;
30743;SDS011;17486;46.738;7.622;2023-03-20T16:35:16;1.35;;;0.90;;
30743;SDS011;17486;46.738;7.622;2023-03-20T16:37:47;0.80;;;0.80;;
30743;SDS011;17486;46.738;7.622;2023-03-20T16:40:21;1.10;;;1.00;;
30743;SDS011;17486;46.738;7.622;2023-03-20T16:43:31;194.02;;;144.32;;
30743;SDS011;17486;46.738;7.622;2023-03-20T16:45:54;111.30;;;84.63;;
30743;SDS011;17486;46.738;7.622;2023-03-20T16:50:47;4.15;;;2.92;;
30743;SDS011;17486;46.738;7.622;2023-03-20T16:53:21;1.20;;;1.10;;
30743;SDS011;17486;46.738;7.622;2023-03-20T16:55:49;0.90;;;0.90;;
30743;SDS011;17486;46.738;7.622;2023-03-20T16:58:20;0.98;;;0.98;;
30743;SDS011;17486;46.738;7.622;2023-03-20T17:00:59;1.40;;;1.00;;
30743;SDS011;17486;46.738;7.622;2023-03-20T17:03:28;1.00;;;0.80;;
30743;SDS011;17486;46.738;7.622;2023-03-20T17:08:37;1.42;;;1.33;;
30743;SDS011;17486;46.738;7.622;2023-03-20T17:11:12;1.10;;;1.02;;
30743;SDS011;17486;46.738;7.622;2023-03-20T17:13:40;1.20;;;1.10;;
30743;SDS011;17486;46.738;7.622;2023-03-20T17:16:12;1.42;;;1.00;;
30743;SDS011;17486;46.738;7.622;2023-03-20T17:18:46;1.23;;;1.13;;
30743;SDS011;17486;46.738;7.622;2023-03-20T17:21:34;2.53;;;1.10;;
30743;SDS011;17486;46.738;7.622;2023-03-20T17:24:00;1.30;;;1.20;;
30743;SDS011;17486;46.738;7.622;2023-03-20T17:26:25;3.60;;;0.95;;
30743;SDS011;17486;46.738;7.622;2023-03-20T17:28:51;1.42;;;1.33;;
30743;SDS011;17486;46.738;7.622;2023-03-20T17:31:17;2.92;;;1.50;;
30743;SDS011;17486;46.738;7.622;2023-03-20T17:33:43;1.63;;;1.45;;
30743;SDS011;17486;46.738;7.622;2023-03-20T17:36:20;2.05;;;1.60;;
30743;SDS011;17486;46.738;7.622;2023-03-20T17:38:48;2.80;;;2.13;;
30743;SDS011;17486;46.738;7.622;2023-03-20T17:41:15;4.32;;;2.38;;
30743;SDS011;17486;46.738;7.622;2023-03-20T17:43:42;328.00;;;234.98;;
30743;SDS011;17486;46.738;7.622;2023-03-20T17:46:11;540.95;;;359.80;;